Time;durP1;ratioP1;P1;durP2;ratioP2;P2;SDS_P1;SDS_P2;PMS_P1;PMS_P2;Temp;Humidity;BMP_temperature;BMP_pressure;BME280_temperature;BME280_humidity;BME280_pressure;Samples;Min_cycle;Max_cycle;Signal;HPM_P1;HPM_P2
2022/05/06 00:00:46;;;;;;;2.70;1.63;;;;;;;11.33;86.71;102183.84;6245780;28;20065;-72
2022/05/06 00:03:47;;;;;;;3.35;1.95;;;;;;;11.35;87.16;102176.75;6258343;28;20052;-72
2022/05/06 00:06:50;;;;;;;2.47;1.83;;;;;;;11.32;85.13;102181.28;6275118;28;20648;-70
2022/05/06 00:09:51;;;;;;;2.83;1.85;;;;;;;11.30;85.66;102183.09;6260807;28;20041;-70
2022/05/06 00:12:53;;;;;;;5.63;2.10;;;;;;;11.33;84.72;102181.22;6265454;28;20056;-70
2022/05/06 00:15:54;;;;;;;3.80;1.65;;;;;;;11.32;85.10;102182.13;6276085;28;20072;-72
2022/05/06 00:18:56;;;;;;;2.90;1.63;;;;;;;11.20;85.40;102185.16;6275552;28;20041;-71
2022/05/06 00:21:59;;;;;;;4.45;2.25;;;;;;;11.20;89.03;102182.53;6274792;28;20049;-71
2022/05/06 00:25:00;;;;;;;4.70;1.98;;;;;;;11.23;88.53;102189.47;6273820;28;20049;-71
2022/05/06 00:28:02;;;;;;;5.45;2.22;;;;;;;11.25;88.49;102185.88;6259142;28;20053;-71
2022/05/06 00:31:04;;;;;;;3.88;1.85;;;;;;;11.22;87.79;102188.63;6249532;28;20053;-72
2022/05/06 00:34:06;;;;;;;3.30;2.15;;;;;;;11.22;88.19;102183.38;6251714;28;20052;-71
2022/05/06 00:37:09;;;;;;;6.22;1.90;;;;;;;11.27;88.61;102181.44;6251818;28;20052;-72
2022/05/06 00:40:13;;;;;;;3.75;2.28;;;;;;;11.23;87.39;102192.13;6250281;28;20053;-71
2022/05/06 00:43:15;;;;;;;2.88;1.83;;;;;;;11.18;87.62;102182.59;6268878;28;20045;-72
2022/05/06 00:46:17;;;;;;;4.72;2.25;;;;;;;11.22;88.44;102182.47;6274847;28;20064;-72
2022/05/06 00:49:18;;;;;;;3.13;1.88;;;;;;;11.27;89.52;102183.22;6273600;28;20049;-72
2022/05/06 00:52:21;;;;;;;4.82;2.25;;;;;;;11.25;87.34;102174.50;6273984;28;20052;-72
2022/05/06 00:55:24;;;;;;;3.45;2.20;;;;;;;11.19;88.40;102183.44;6275257;28;20049;-72
2022/05/06 00:58:29;;;;;;;3.58;2.42;;;;;;;11.26;89.55;102181.47;6253767;28;20051;-72
2022/05/06 01:01:30;;;;;;;3.15;1.63;;;;;;;11.31;89.16;102185.69;6249808;28;20045;-72
2022/05/06 01:04:31;;;;;;;2.33;1.60;;;;;;;11.27;88.19;102177.94;6251181;28;20408;-72
2022/05/06 01:07:34;;;;;;;3.17;1.90;;;;;;;11.27;90.37;102188.47;6250192;28;20052;-70
2022/05/06 01:10:37;;;;;;;3.05;1.98;;;;;;;11.32;90.51;102187.41;6249447;28;20485;-70
2022/05/06 01:13:43;;;;;;;3.75;1.60;;;;;;;11.32;91.02;102184.78;6271847;28;20096;-72
2022/05/06 01:16:44;;;;;;;4.68;1.95;;;;;;;11.31;90.38;102190.97;6263999;28;20669;-72
2022/05/06 01:19:45;;;;;;;6.45;1.98;;;;;;;11.32;90.11;102184.78;6270463;28;20041;-71
2022/05/06 01:22:50;;;;;;;2.00;1.52;;;;;;;11.33;90.57;102193.53;6253083;28;20519;-72
2022/05/06 01:25:52;;;;;;;3.83;1.90;;;;;;;11.22;89.57;102198.25;6264853;28;20056;-72
2022/05/06 01:28:55;;;;;;;3.10;2.13;;;;;;;11.14;89.79;102195.91;6271041;28;20162;-72
2022/05/06 01:31:57;;;;;;;2.75;1.67;;;;;;;11.14;90.02;102204.66;6271842;28;20774;-71
2022/05/06 01:35:01;;;;;;;3.55;1.70;;;;;;;11.11;90.58;102201.25;6251816;28;20057;-71
2022/05/06 01:38:05;;;;;;;3.53;2.03;;;;;;;10.96;91.66;102199.97;6249186;28;20053;-72
2022/05/06 01:41:09;;;;;;;6.38;1.52;;;;;;;10.89;93.95;102209.81;6249612;28;20052;-71
2022/05/06 01:44:15;;;;;;;4.32;2.65;;;;;;;10.85;95.33;102212.59;6272204;28;20114;-72
2022/05/06 01:47:21;;;;;;;2.25;1.50;;;;;;;10.84;96.29;102213.50;6273942;28;20497;-71
2022/05/06 01:50:24;;;;;;;3.10;1.77;;;;;;;10.78;98.05;102211.06;6255605;28;20068;-71
2022/05/06 01:53:28;;;;;;;3.15;1.95;;;;;;;10.70;100.00;102211.31;6249068;28;20050;-72
2022/05/06 01:56:29;;;;;;;3.33;2.03;;;;;;;10.59;99.73;102208.16;6253371;28;20040;-72
2022/05/06 01:59:30;;;;;;;4.38;1.75;;;;;;;10.51;100.00;102207.50;6271989;28;20045;-72
2022/05/06 02:02:32;;;;;;;3.50;1.92;;;;;;;10.39;100.00;102203.47;6272319;28;20129;-73
2022/05/06 02:05:32;;;;;;;6.28;3.03;;;;;;;10.32;100.00;102204.56;6273813;28;20056;-71
2022/05/06 02:08:35;;;;;;;3.35;2.13;;;;;;;10.27;100.00;102215.19;6273020;28;20053;-72
2022/05/06 02:11:36;;;;;;;4.82;2.30;;;;;;;10.22;100.00;102203.94;6266380;28;20045;-72
2022/05/06 02:14:38;;;;;;;6.45;2.05;;;;;;;10.14;100.00;102208.53;6249549;28;20493;-71
2022/05/06 02:17:40;;;;;;;5.47;2.28;;;;;;;10.16;100.00;102211.97;6248235;28;20412;-71
2022/05/06 02:20:41;;;;;;;2.63;1.80;;;;;;;10.18;100.00;102209.31;6247219;28;20050;-72
2022/05/06 02:23:44;;;;;;;3.60;2.40;;;;;;;10.20;100.00;102208.34;6248141;28;20056;-71
2022/05/06 02:26:45;;;;;;;4.22;2.13;;;;;;;10.21;100.00;102211.84;6252726;28;20519;-71
2022/05/06 02:33:14;;;;;;;6.55;2.17;;;;;;;10.16;100.00;102211.97;6270587;28;20131;-71
2022/05/06 02:36:16;;;;;;;3.65;1.98;;;;;;;10.14;100.00;102213.78;6248039;28;20049;-72
2022/05/06 02:39:18;;;;;;;3.03;2.00;;;;;;;10.13;100.00;102210.31;6249270;28;20432;-72
2022/05/06 02:42:20;;;;;;;3.45;1.92;;;;;;;10.13;100.00;102209.44;6247063;28;20041;-72
2022/05/06 02:45:22;;;;;;;3.53;2.05;;;;;;;10.08;100.00;102213.94;6247856;28;20144;-72
2022/05/06 02:48:23;;;;;;;4.43;2.17;;;;;;;10.06;100.00;102208.75;6260731;28;20048;-72
2022/05/06 02:51:25;;;;;;;2.53;1.70;;;;;;;10.05;100.00;102212.28;6267355;28;20041;-71
2022/05/06 02:54:29;;;;;;;3.60;2.13;;;;;;;10.03;100.00;102210.59;6248406;28;20138;-72
2022/05/06 02:57:31;;;;;;;6.45;1.88;;;;;;;10.02;100.00;102212.34;6247716;28;20041;-72
2022/05/06 03:00:32;;;;;;;2.80;1.80;;;;;;;9.99;100.00;102211.56;6246746;28;20417;-72
2022/05/06 03:03:34;;;;;;;3.65;1.90;;;;;;;10.01;100.00;102202.75;6247627;28;20058;-71
2022/05/06 03:06:36;;;;;;;3.03;1.60;;;;;;;9.98;100.00;102207.22;6265540;28;20049;-71
2022/05/06 03:09:39;;;;;;;4.63;2.00;;;;;;;9.86;100.00;102200.56;6272015;28;20209;-72
2022/05/06 03:12:43;;;;;;;2.75;1.77;;;;;;;9.73;100.00;102193.91;6270680;28;20059;-72
2022/05/06 03:15:45;;;;;;;6.53;2.10;;;;;;;9.73;100.00;102197.41;6271706;28;20052;-72
2022/05/06 03:18:46;;;;;;;7.72;1.63;;;;;;;9.81;100.00;102202.41;6270520;28;20045;-71
2022/05/06 03:21:52;;;;;;;4.40;1.98;;;;;;;9.84;100.00;102200.56;6267019;28;19920;-71
2022/05/06 03:24:55;;;;;;;4.10;2.35;;;;;;;9.86;100.00;102203.19;6246932;28;20049;-72
2022/05/06 03:28:08;;;;;;;3.35;1.95;;;;;;;9.85;100.00;102202.28;6246760;28;20056;-72
2022/05/06 03:31:11;;;;;;;3.13;2.20;;;;;;;9.81;100.00;102208.56;6265751;28;20049;-72
2022/05/06 03:34:13;;;;;;;3.28;2.08;;;;;;;9.81;100.00;102195.44;6256862;28;20504;-71
2022/05/06 03:37:14;;;;;;;6.38;2.17;;;;;;;9.68;100.00;102195.81;6271407;28;20052;-71
2022/05/06 03:40:17;;;;;;;8.18;2.00;;;;;;;9.55;100.00;102190.88;6257527;28;20052;-71
2022/05/06 03:43:18;;;;;;;3.60;2.20;;;;;;;9.54;100.00;102189.16;6246673;28;20052;-71
2022/05/06 03:46:19;;;;;;;9.40;1.95;;;;;;;9.51;100.00;102196.22;6266203;28;20072;-71
2022/05/06 03:49:20;;;;;;;7.70;1.95;;;;;;;9.51;100.00;102190.97;6257029;28;20049;-71
2022/05/06 03:52:21;;;;;;;4.05;2.53;;;;;;;9.49;100.00;102190.13;6245859;28;20049;-72
2022/05/06 03:55:24;;;;;;;4.68;2.28;;;;;;;9.43;100.00;102188.53;6246913;28;20080;-71
2022/05/06 03:58:25;;;;;;;4.38;1.70;;;;;;;9.35;100.00;102190.50;6247481;28;20041;-72
2022/05/06 04:01:26;;;;;;;6.72;2.03;;;;;;;9.27;100.00;102189.84;6246950;28;20179;-71
2022/05/06 04:04:28;;;;;;;4.60;1.92;;;;;;;9.19;100.00;102194.41;6270959;28;20519;-71
2022/05/06 04:07:29;;;;;;;4.85;2.03;;;;;;;9.16;100.00;102195.34;6270809;28;20427;-71
2022/05/06 04:10:32;;;;;;;4.88;2.75;;;;;;;9.03;100.00;102205.25;6270480;28;20052;-71
2022/05/06 04:13:34;;;;;;;5.13;2.28;;;;;;;8.92;100.00;102207.28;6252178;28;20065;-71
2022/05/06 04:16:36;;;;;;;4.88;2.15;;;;;;;8.88;100.00;102203.00;6256838;28;20401;-71
2022/05/06 04:19:37;;;;;;;8.43;2.33;;;;;;;8.94;100.00;102208.09;6247543;28;20531;-72
2022/05/06 04:26:00;;;;;;;8.65;2.53;;;;;;;8.95;100.00;102208.94;6269701;28;20053;-71
2022/05/06 04:29:02;;;;;;;4.78;2.35;;;;;;;8.84;100.00;102211.81;6265072;28;20528;-72
2022/05/06 04:32:04;;;;;;;6.30;2.50;;;;;;;8.78;100.00;102214.59;6262431;28;20466;-71
2022/05/06 04:35:08;;;;;;;3.10;2.25;;;;;;;8.80;100.00;102215.41;6258895;28;20057;-71
2022/05/06 04:38:09;;;;;;;4.30;2.25;;;;;;;8.81;100.00;102218.00;6263538;28;20041;-72
2022/05/06 04:41:12;;;;;;;3.78;2.30;;;;;;;8.82;100.00;102211.00;6257353;28;20060;-72
2022/05/06 04:44:13;;;;;;;5.47;2.45;;;;;;;8.86;100.00;102221.38;6254926;28;20050;-71
2022/05/06 04:47:14;;;;;;;3.30;2.22;;;;;;;8.97;100.00;102218.50;6257428;28;20049;-71
2022/05/06 04:50:16;;;;;;;3.83;2.30;;;;;;;9.03;100.00;102218.34;6256571;28;20045;-71
2022/05/06 04:53:18;;;;;;;3.65;2.05;;;;;;;9.05;100.00;102213.97;6263328;28;20053;-71
2022/05/06 04:56:21;;;;;;;6.03;2.90;;;;;;;9.08;100.00;102219.13;6272255;28;20053;-71
2022/05/06 04:59:23;;;;;;;5.63;2.80;;;;;;;9.11;100.00;102213.81;6250239;28;20049;-71
2022/05/06 05:02:26;;;;;;;4.93;2.58;;;;;;;9.13;100.00;102217.25;6260471;28;20056;-71
2022/05/06 05:05:28;;;;;;;4.70;2.67;;;;;;;9.20;100.00;102228.47;6275083;28;20420;-71
2022/05/06 05:08:29;;;;;;;4.80;2.70;;;;;;;9.26;100.00;102224.81;6272845;28;20507;-73
2022/05/06 05:11:33;;;;;;;4.22;2.58;;;;;;;9.30;100.00;102231.72;6258900;28;20052;-71
2022/05/06 05:14:35;;;;;;;5.60;2.97;;;;;;;9.32;100.00;102241.28;6272577;28;20067;-71
2022/05/06 05:17:36;;;;;;;5.32;2.78;;;;;;;9.36;100.00;102239.47;6266591;28;20094;-71
2022/05/06 05:20:38;;;;;;;5.30;2.78;;;;;;;9.37;100.00;102243.81;6270211;28;20080;-72
2022/05/06 05:23:40;;;;;;;5.10;2.60;;;;;;;9.39;100.00;102240.22;6273029;28;20053;-71
2022/05/06 05:26:43;;;;;;;4.18;2.72;;;;;;;9.43;100.00;102238.41;6271397;28;20042;-72
2022/05/06 05:29:44;;;;;;;4.38;2.58;;;;;;;9.51;100.00;102243.47;6259837;28;20048;-71
2022/05/06 05:32:46;;;;;;;3.70;2.45;;;;;;;9.60;100.00;102246.72;6273956;28;20504;-71
2022/05/06 05:35:47;;;;;;;5.20;2.92;;;;;;;9.67;100.00;102242.16;6273656;28;20053;-71
2022/05/06 05:38:48;;;;;;;8.18;2.72;;;;;;;9.72;100.00;102244.66;6270922;28;20520;-71
2022/05/06 05:41:51;;;;;;;8.65;3.47;;;;;;;9.77;100.00;102246.28;6248538;28;20095;-71
2022/05/06 05:48:23;;;;;;;7.38;3.28;;;;;;;9.91;100.00;102244.16;6273821;28;20504;-71
2022/05/06 05:51:25;;;;;;;5.72;2.70;;;;;;;10.01;100.00;102241.28;6273173;28;20055;-71
2022/05/06 05:54:28;;;;;;;3.78;2.30;;;;;;;10.07;100.00;102241.97;6264930;28;20045;-71
2022/05/06 05:57:31;;;;;;;4.85;2.65;;;;;;;10.18;100.00;102236.44;6261324;28;20056;-71
2022/05/06 06:00:32;;;;;;;6.90;2.85;;;;;;;10.27;100.00;102235.38;6272907;28;20045;-72
2022/05/06 06:03:34;;;;;;;6.95;3.75;;;;;;;10.32;100.00;102233.47;6272711;28;20420;-71
2022/05/06 06:06:35;;;;;;;4.30;2.60;;;;;;;10.39;100.00;102238.47;6273600;28;20057;-71
2022/05/06 06:09:36;;;;;;;6.40;2.60;;;;;;;10.47;100.00;102242.66;6271154;28;20056;-71
2022/05/06 06:12:39;;;;;;;4.53;2.30;;;;;;;10.54;100.00;102246.84;6249089;28;20053;-71
2022/05/06 06:15:41;;;;;;;10.30;3.55;;;;;;;10.62;100.00;102247.47;6248372;28;20145;-71
2022/05/06 06:18:42;;;;;;;7.18;3.22;;;;;;;10.69;100.00;102246.41;6264903;28;20052;-71
2022/05/06 06:21:44;;;;;;;5.55;2.75;;;;;;;10.78;100.00;102245.25;6272324;28;20048;-71
2022/05/06 06:24:45;;;;;;;6.15;3.00;;;;;;;10.84;100.00;102256.44;6258812;28;20045;-72
2022/05/06 06:27:48;;;;;;;3.83;2.53;;;;;;;10.95;100.00;102250.00;6249132;28;20049;-71
2022/05/06 06:30:49;;;;;;;5.47;3.08;;;;;;;11.02;100.00;102248.91;6247646;28;20050;-71
2022/05/06 06:33:51;;;;;;;6.53;3.35;;;;;;;11.15;100.00;102248.47;6247904;28;20045;-71
2022/05/06 06:36:52;;;;;;;6.55;3.22;;;;;;;11.29;100.00;102252.44;6248495;28;20050;-68
2022/05/06 06:39:53;;;;;;;6.07;2.70;;;;;;;11.35;100.00;102252.22;6270265;28;20448;-69
2022/05/06 06:43:01;;;;;;;10.05;2.53;;;;;;;11.40;100.00;102252.97;6272009;28;20456;-69
2022/05/06 06:46:05;;;;;;;4.95;2.55;;;;;;;11.47;100.00;102253.59;6251009;28;20390;-68
2022/05/06 06:49:07;;;;;;;5.82;2.90;;;;;;;11.55;100.00;102260.34;6247904;28;20057;-76
2022/05/06 06:52:08;;;;;;;5.72;3.20;;;;;;;11.69;100.00;102258.09;6247238;28;20045;-69
2022/05/06 06:55:10;;;;;;;5.68;3.65;;;;;;;11.86;100.00;102254.09;6247237;28;20412;-69
2022/05/06 06:58:12;;;;;;;6.63;2.78;;;;;;;11.97;100.00;102254.56;6250509;28;20055;-69
2022/05/06 07:01:14;;;;;;;6.32;3.45;;;;;;;12.03;100.00;102256.09;6264847;28;20045;-69
2022/05/06 07:04:15;;;;;;;8.98;3.20;;;;;;;12.12;100.00;102255.78;6272025;28;20735;-68
2022/05/06 07:14:04;;;;;;;8.13;3.58;;;;;;;12.49;97.49;102259.72;6246457;28;20084;-69
2022/05/06 07:17:06;;;;;;;5.13;3.20;;;;;;;12.54;98.29;102255.16;6270498;28;20056;-69
2022/05/06 07:20:08;;;;;;;6.70;3.55;;;;;;;12.56;100.00;102248.91;6271125;28;20057;-69
2022/05/06 07:23:10;;;;;;;6.72;3.17;;;;;;;12.58;99.94;102252.34;6271259;28;20044;-69
2022/05/06 07:26:13;;;;;;;5.57;2.85;;;;;;;12.63;100.00;102258.31;6261517;28;20128;-69
2022/05/06 07:29:16;;;;;;;6.25;3.10;;;;;;;12.70;99.30;102251.00;6271988;28;20060;-73
2022/05/06 07:32:18;;;;;;;8.32;2.70;;;;;;;12.76;99.73;102253.41;6270682;28;20564;-72
2022/05/06 07:35:20;;;;;;;3.55;2.50;;;;;;;12.86;98.32;102249.50;6255000;28;20072;-72
2022/05/06 07:38:21;;;;;;;6.15;3.00;;;;;;;12.92;95.29;102253.69;6252928;28;20095;-73
2022/05/06 07:41:23;;;;;;;3.90;2.42;;;;;;;13.04;94.48;102253.22;6268528;28;20037;-73
2022/05/06 07:44:25;;;;;;;4.50;2.95;;;;;;;13.12;91.18;102256.38;6270588;28;20057;-72
2022/05/06 07:47:27;;;;;;;6.45;2.72;;;;;;;13.24;89.98;102256.88;6266509;28;20500;-73
2022/05/06 07:50:30;;;;;;;3.35;2.17;;;;;;;13.37;84.45;102248.38;6270584;28;20045;-73
2022/05/06 07:53:32;;;;;;;3.90;2.17;;;;;;;13.52;81.35;102246.03;6268201;28;20052;-72
2022/05/06 07:56:33;;;;;;;3.28;2.20;;;;;;;13.70;77.80;102254.03;6264595;28;20060;-72
2022/05/06 07:59:36;;;;;;;4.20;2.25;;;;;;;13.79;79.62;102250.16;6260713;28;20413;-72
2022/05/06 08:05:57;;;;;;;2.97;2.15;;;;;;;13.83;82.72;102249.09;6248246;28;20052;-71
2022/05/06 08:08:59;;;;;;;3.83;2.33;;;;;;;13.95;80.19;102238.00;6271033;28;20060;-73
2022/05/06 08:12:00;;;;;;;4.63;1.98;;;;;;;14.21;73.37;102242.13;6270347;28;20056;-72
2022/05/06 08:15:03;;;;;;;4.15;2.05;;;;;;;14.31;75.27;102244.38;6270793;28;20060;-73
2022/05/06 08:18:05;;;;;;;3.17;1.77;;;;;;;14.38;74.19;102241.38;6270708;28;20056;-73
2022/05/06 08:21:06;;;;;;;5.25;2.10;;;;;;;14.56;70.24;102245.00;6266798;28;20052;-73
2022/05/06 08:24:09;;;;;;;4.97;2.13;;;;;;;14.57;70.62;102246.69;6266938;28;20524;-72
2022/05/06 08:27:11;;;;;;;5.18;1.80;;;;;;;14.81;65.09;102247.38;6271807;28;20074;-73
2022/05/06 08:30:14;;;;;;;2.17;1.58;;;;;;;14.89;63.62;102245.19;6275621;28;20060;-73
2022/05/06 08:33:17;;;;;;;2.22;1.45;;;;;;;14.92;64.83;102237.13;6271267;28;20049;-73
2022/05/06 08:36:19;;;;;;;5.93;1.73;;;;;;;14.87;65.89;102230.34;6250409;28;20199;-73
2022/05/06 08:39:20;;;;;;;2.78;1.48;;;;;;;14.87;64.16;102236.47;6250505;28;20060;-73
2022/05/06 08:42:23;;;;;;;4.20;2.05;;;;;;;14.95;60.91;102231.69;6250434;28;20401;-73
2022/05/06 08:52:05;;;;;;;1.88;1.25;;;;;;;15.20;61.02;102241.94;6274637;28;20049;-73
2022/05/06 08:55:08;;;;;;;7.80;1.88;;;;;;;15.33;57.15;102244.84;6275180;28;20061;-73
2022/05/06 08:58:10;;;;;;;2.20;1.45;;;;;;;15.31;58.72;102235.28;6274989;28;20134;-72
2022/05/06 09:01:15;;;;;;;2.42;1.30;;;;;;;15.36;60.72;102227.97;6272472;28;20119;-72
2022/05/06 09:04:16;;;;;;;3.13;1.60;;;;;;;15.44;59.57;102234.59;6274551;28;20409;-72
2022/05/06 09:07:20;;;;;;;2.42;1.45;;;;;;;15.43;58.36;102226.69;6274374;28;20048;-74
2022/05/06 09:10:21;;;;;;;3.58;1.98;;;;;;;15.41;60.72;102226.78;6255959;28;20049;-74
2022/05/06 09:13:25;;;;;;;2.00;1.40;;;;;;;15.57;56.54;102236.59;6250089;28;20050;-74
2022/05/06 09:16:40;;;;;;;3.08;1.20;;;;;;;15.65;54.18;102224.72;6250331;28;20076;-74
2022/05/06 09:19:42;;;;;;;4.20;1.63;;;;;;;15.86;53.88;102227.22;6249366;28;20202;-74
2022/05/06 09:22:43;;;;;;;1.85;1.10;;;;;;;15.90;52.91;102226.13;6270087;28;20048;-75
2022/05/06 09:25:46;;;;;;;1.67;1.30;;;;;;;15.97;53.72;102222.19;6271959;28;20056;-73
2022/05/06 09:28:47;;;;;;;6.18;1.20;;;;;;;16.13;53.62;102216.97;6268782;28;20053;-72
2022/05/06 09:31:54;;;;;;;3.10;1.80;;;;;;;16.29;52.69;102228.44;6269289;28;20052;-73
2022/05/06 09:34:57;;;;;;;2.95;1.67;;;;;;;16.32;54.06;102230.09;6273103;28;20071;-73
2022/05/06 09:38:02;;;;;;;3.25;1.90;;;;;;;16.34;53.75;102222.88;6259914;28;20048;-72
2022/05/06 09:41:19;;;;;;;3.47;1.58;;;;;;;16.28;54.12;102218.78;6247415;28;20042;-72
2022/05/06 09:44:23;;;;;;;10.02;2.78;;;;;;;16.31;52.89;102217.78;6248612;28;20049;-73
2022/05/06 09:47:26;;;;;;;4.53;2.40;;;;;;;16.42;53.47;102215.38;6248528;28;20046;-72
2022/05/06 09:50:35;;;;;;;4.22;1.80;;;;;;;16.47;54.92;102218.63;6246782;28;20053;-72
2022/05/06 09:53:37;;;;;;;4.97;2.15;;;;;;;16.49;53.12;102208.81;6266791;28;20393;-72
2022/05/06 09:56:41;;;;;;;5.68;2.35;;;;;;;16.61;53.56;102205.44;6272380;28;20068;-72
2022/05/06 09:59:42;;;;;;;4.15;2.33;;;;;;;16.68;52.73;102208.63;6273494;28;20128;-72
2022/05/06 10:02:45;;;;;;;6.22;2.10;;;;;;;16.63;54.74;102202.72;6261682;28;20045;-72
2022/05/06 10:05:46;;;;;;;4.95;2.53;;;;;;;16.76;52.47;102205.56;6261789;28;20058;-72
2022/05/06 10:08:50;;;;;;;4.00;2.08;;;;;;;16.82;52.40;102197.28;6266587;28;20057;-71
2022/05/06 10:11:53;;;;;;;6.32;2.38;;;;;;;16.91;51.98;102197.63;6272761;28;20448;-72
2022/05/06 10:14:55;;;;;;;3.75;2.13;;;;;;;16.98;54.16;102192.78;6273353;28;20051;-71
2022/05/06 10:17:59;;;;;;;4.53;2.63;;;;;;;17.24;52.75;102188.63;6273040;28;20060;-73
2022/05/06 10:21:01;;;;;;;9.63;2.75;;;;;;;17.41;51.90;102192.97;6249310;28;20052;-73
2022/05/06 10:24:14;;;;;;;5.20;2.55;;;;;;;17.43;52.15;102194.59;6247990;28;20398;-73
2022/05/06 10:32:25;;;;;;;4.03;2.63;;;;;;;17.43;53.86;102186.59;6248426;28;20054;-73
2022/05/06 10:34:10;;;;;;;6.15;2.85;;;;;;;17.88;51.17;102187.47;6244322;28;20106;-73
2022/05/06 10:37:15;;;;;;;4.78;2.50;;;;;;;17.91;48.92;102178.47;6272536;28;20045;-73
2022/05/06 10:40:31;;;;;;;4.88;2.28;;;;;;;17.96;50.67;102171.91;6267320;28;20049;-74
2022/05/06 10:43:51;;;;;;;6.43;3.38;;;;;;;18.24;49.45;102168.38;6265573;28;20458;-72
2022/05/06 10:46:53;;;;;;;4.50;2.10;;;;;;;18.12;50.25;102166.50;6264161;28;20423;-74
2022/05/06 10:49:56;;;;;;;5.20;2.80;;;;;;;17.84;50.45;102167.34;6265283;28;20151;-74
2022/05/06 10:53:01;;;;;;;3.92;2.20;;;;;;;17.66;52.98;102163.09;6259051;28;20504;-73
2022/05/06 10:56:02;;;;;;;4.03;2.53;;;;;;;17.64;52.20;102151.72;6263892;28;20053;-74
2022/05/06 10:59:04;;;;;;;3.35;1.98;;;;;;;17.93;50.15;102157.94;6258500;28;20056;-72
2022/05/06 11:02:11;;;;;;;4.10;2.55;;;;;;;18.26;49.31;102149.69;6256989;28;20045;-73
2022/05/06 11:05:15;;;;;;;3.67;2.20;;;;;;;18.36;47.87;102150.78;6269827;28;20501;-72
2022/05/06 11:08:19;;;;;;;3.58;2.20;;;;;;;18.63;46.44;102160.63;6272090;28;20053;-72
2022/05/06 11:11:20;;;;;;;3.70;2.10;;;;;;;18.83;47.78;102154.88;6269465;28;20057;-73
2022/05/06 11:14:22;;;;;;;5.93;1.90;;;;;;;19.14;47.36;102158.19;6271854;28;20416;-73
2022/05/06 11:17:24;;;;;;;4.38;2.38;;;;;;;19.60;47.14;102147.06;6271787;28;20057;-71
2022/05/06 11:20:29;;;;;;;1.77;1.52;;;;;;;19.98;46.37;102157.72;6269655;28;20463;-71
2022/05/06 11:23:30;;;;;;;3.28;1.77;;;;;;;20.30;45.17;102150.09;6271599;28;20041;-71
2022/05/06 11:26:31;;;;;;;4.57;2.42;;;;;;;20.65;41.75;102139.56;6271637;28;20052;-71
2022/05/06 11:29:47;;;;;;;4.03;2.00;;;;;;;20.95;39.86;102148.94;6271677;28;20056;-71
2022/05/06 11:32:50;;;;;;;3.72;1.70;;;;;;;22.24;38.38;102137.16;6271133;28;20099;-74
2022/05/06 11:36:01;;;;;;;4.75;1.75;;;;;;;23.26;37.63;102139.41;6271449;28;20072;-71
2022/05/06 11:39:10;;;;;;;5.53;2.30;;;;;;;23.51;33.75;102132.78;6271254;28;20048;-71
2022/05/06 11:42:21;;;;;;;7.07;1.90;;;;;;;23.67;35.95;102123.44;6270408;28;20052;-71
2022/05/06 11:48:43;;;;;;;2.78;1.77;;;;;;;24.73;31.80;102121.06;6267750;28;20489;-72
2022/05/06 11:51:47;;;;;;;3.00;1.65;;;;;;;25.74;31.85;102119.66;6265297;28;20060;-72
2022/05/06 11:54:48;;;;;;;1.85;1.27;;;;;;;26.67;31.12;102115.09;6269047;28;20424;-72
2022/05/06 11:57:50;;;;;;;2.22;1.40;;;;;;;25.15;30.27;102114.56;6270469;28;20049;-73
2022/05/06 12:00:53;;;;;;;6.80;1.77;;;;;;;25.36;29.98;102107.19;6267327;28;20041;-72
2022/05/06 12:03:58;;;;;;;1.83;1.30;;;;;;;26.24;31.03;102102.28;6272055;28;20053;-72
2022/05/06 12:07:01;;;;;;;2.20;1.10;;;;;;;26.28;30.08;102099.16;6272892;28;20045;-72
2022/05/06 12:10:02;;;;;;;2.05;1.27;;;;;;;26.83;30.50;102089.25;6273648;28;20292;-71
2022/05/06 12:13:07;;;;;;;3.78;1.60;;;;;;;27.57;27.21;102088.81;6274896;28;20512;-72
2022/05/06 12:16:11;;;;;;;1.25;0.90;;;;;;;25.57;29.31;102093.50;6250664;28;20053;-72
2022/05/06 12:19:13;;;;;;;1.42;0.90;;;;;;;25.12;29.18;102091.53;6249980;28;20053;-72
2022/05/06 12:22:21;;;;;;;1.77;1.27;;;;;;;25.41;28.88;102093.28;6248502;28;20136;-71
2022/05/06 12:25:23;;;;;;;1.45;1.13;;;;;;;26.22;29.27;102083.59;6248860;28;20220;-73
2022/05/06 12:28:25;;;;;;;1.38;0.88;;;;;;;25.21;28.97;102087.97;6247984;28;20054;-72
2022/05/06 12:31:29;;;;;;;4.80;1.42;;;;;;;23.42;32.79;102087.97;6263709;28;20045;-72
2022/05/06 12:34:31;;;;;;;2.25;1.17;;;;;;;22.04;35.61;102094.06;6274820;28;20147;-71
2022/05/06 12:37:34;;;;;;;3.40;1.50;;;;;;;20.76;36.93;102091.53;6275226;28;20049;-71
2022/05/06 12:40:36;;;;;;;3.97;1.92;;;;;;;22.10;36.03;102089.19;6264421;28;20060;-70
2022/05/06 12:43:37;;;;;;;1.88;1.40;;;;;;;23.61;33.51;102087.19;6274760;28;20052;-71
2022/05/06 12:46:39;;;;;;;2.42;1.48;;;;;;;24.99;30.79;102085.56;6275326;28;20049;-70
2022/05/06 12:49:40;;;;;;;4.10;1.77;;;;;;;26.56;29.32;102082.94;6258526;28;20132;-72
2022/05/06 12:52:43;;;;;;;3.05;1.70;;;;;;;27.21;28.39;102071.88;6249867;28;20045;-72
2022/05/06 12:55:44;;;;;;;1.52;0.95;;;;;;;27.31;28.03;102073.47;6250196;28;20073;-72
2022/05/06 12:58:45;;;;;;;1.65;1.40;;;;;;;26.80;30.00;102066.16;6250532;28;20055;-72
2022/05/06 13:01:47;;;;;;;3.10;1.67;;;;;;;27.67;27.57;102062.53;6249364;28;20045;-73
2022/05/06 13:04:48;;;;;;;1.38;1.10;;;;;;;26.95;28.93;102063.75;6250348;28;20523;-73
2022/05/06 13:07:51;;;;;;;2.28;1.50;;;;;;;25.47;30.69;102065.78;6259768;28;20052;-72
2022/05/06 13:10:52;;;;;;;3.92;1.60;;;;;;;25.08;31.17;102060.50;6274043;28;20050;-73
2022/05/06 13:13:54;;;;;;;1.92;1.48;;;;;;;24.96;30.81;102067.00;6273643;28;20045;-72
2022/05/06 13:16:55;;;;;;;2.55;1.30;;;;;;;26.32;28.19;102059.25;6274369;28;20412;-72
2022/05/06 13:19:57;;;;;;;11.57;1.98;;;;;;;24.46;30.21;102059.09;6272616;28;20048;-73
2022/05/06 13:23:00;;;;;;;5.65;2.83;;;;;;;23.04;33.29;102061.75;6273816;28;20049;-72
2022/05/06 13:26:02;;;;;;;3.10;1.92;;;;;;;22.11;36.23;102056.91;6274690;28;20057;-72
2022/05/06 13:29:05;;;;;;;2.40;1.67;;;;;;;21.70;36.83;102057.59;6267397;28;20128;-72
2022/05/06 13:32:07;;;;;;;2.13;1.42;;;;;;;21.51;38.80;102056.38;6271645;28;20056;-72
2022/05/06 13:35:09;;;;;;;3.65;1.83;;;;;;;21.20;37.89;102057.88;6273583;28;20052;-72
2022/05/06 13:38:12;;;;;;;3.47;1.98;;;;;;;20.78;38.29;102057.53;6274123;28;20045;-72
2022/05/06 13:41:14;;;;;;;4.80;1.63;;;;;;;20.70;40.10;102057.25;6273397;28;20053;-72
2022/05/06 13:44:16;;;;;;;2.97;1.63;;;;;;;20.72;40.21;102051.81;6273985;28;20049;-72
2022/05/06 13:47:17;;;;;;;6.68;1.80;;;;;;;20.84;41.45;102053.53;6267376;28;20547;-71
2022/05/06 13:50:18;;;;;;;3.90;2.38;;;;;;;20.85;42.05;102043.69;6268365;28;20515;-70
2022/05/06 13:53:22;;;;;;;7.68;2.15;;;;;;;20.91;38.78;102049.44;6273890;28;20048;-72
2022/05/06 13:59:42;;;;;;;5.93;2.05;;;;;;;20.45;40.58;102050.19;6273537;28;20053;-72
2022/05/06 14:02:43;;;;;;;3.00;2.05;;;;;;;20.37;41.77;102047.22;6273252;28;20044;-71
2022/05/06 14:05:47;;;;;;;3.50;2.08;;;;;;;20.57;40.39;102051.13;6273652;28;20053;-71
2022/05/06 14:08:49;;;;;;;3.58;1.88;;;;;;;20.52;40.47;102043.44;6273359;28;20060;-71
2022/05/06 14:11:51;;;;;;;5.25;2.30;;;;;;;20.27;40.86;102047.06;6272848;28;20057;-71
2022/05/06 14:14:52;;;;;;;4.00;2.20;;;;;;;20.26;40.61;102042.69;6273206;28;20049;-71
2022/05/06 14:17:54;;;;;;;2.75;2.13;;;;;;;20.40;41.13;102043.50;6268831;28;20489;-71
2022/05/06 14:20:55;;;;;;;6.38;2.05;;;;;;;20.61;40.92;102041.91;6267942;28;20052;-71
2022/05/06 14:23:58;;;;;;;4.65;2.42;;;;;;;23.06;35.87;102035.66;6269163;28;20056;-71
2022/05/06 14:26:59;;;;;;;2.97;1.85;;;;;;;24.82;33.40;102040.56;6269215;28;20062;-72
2022/05/06 14:30:00;;;;;;;3.60;2.28;;;;;;;25.91;32.28;102039.09;6268840;28;20055;-71
2022/05/06 14:33:02;;;;;;;4.13;2.40;;;;;;;26.34;29.70;102032.16;6267445;28;20049;-72
2022/05/06 14:36:04;;;;;;;3.95;2.25;;;;;;;26.68;29.92;102029.63;6268732;28;20056;-71
2022/05/06 14:39:07;;;;;;;2.15;1.70;;;;;;;27.36;27.86;102024.38;6260802;28;20049;-71
2022/05/06 14:42:08;;;;;;;3.47;2.00;;;;;;;25.78;30.92;102029.53;6260902;28;20049;-71
2022/05/06 14:45:10;;;;;;;2.30;1.88;;;;;;;25.50;31.82;102019.72;6264295;28;20415;-72